createdAt,value
2023-08-15T00:00:30.574Z,8.00
2023-08-15T00:02:58.789Z,9.00
2023-08-15T00:05:28.210Z,8.82
2023-08-15T00:07:57.073Z,9.02
2023-08-15T00:10:25.046Z,8.93
2023-08-15T00:12:53.183Z,5.43
2023-08-15T00:15:21.429Z,6.75
2023-08-15T00:17:49.638Z,4.80
2023-08-15T00:20:17.709Z,5.65
2023-08-15T00:22:47.091Z,4.95
2023-08-15T00:25:15.291Z,5.22
2023-08-15T00:27:43.350Z,4.32
2023-08-15T00:30:11.993Z,5.65
2023-08-15T00:32:40.038Z,4.47
2023-08-15T00:35:08.857Z,4.10
2023-08-15T00:37:37.075Z,5.90
2023-08-15T00:40:07.821Z,5.65
2023-08-15T00:42:35.968Z,5.07
2023-08-15T00:45:04.213Z,3.92
2023-08-15T00:47:32.491Z,5.35
2023-08-15T00:50:01.778Z,3.38
2023-08-15T00:52:29.963Z,6.38
2023-08-15T00:54:58.176Z,4.05
2023-08-15T00:57:27.731Z,7.95
2023-08-15T00:59:56.074Z,3.60
2023-08-15T01:02:24.362Z,4.18
2023-08-15T01:04:52.456Z,6.07
2023-08-15T01:07:20.750Z,6.20
2023-08-15T01:09:49.150Z,4.22
2023-08-15T01:12:26.621Z,5.10
2023-08-15T01:15:01.786Z,4.47
2023-08-15T01:17:36.790Z,5.22
2023-08-15T01:20:10.037Z,4.60
2023-08-15T01:22:42.784Z,5.65
2023-08-15T01:25:12.253Z,6.45
2023-08-15T01:27:40.317Z,6.30
2023-08-15T01:30:09.644Z,3.80
2023-08-15T01:32:44.054Z,7.00
2023-08-15T01:35:18.993Z,4.07
2023-08-15T01:37:56.502Z,3.42
2023-08-15T01:40:27.979Z,5.65
2023-08-15T01:42:59.076Z,4.30
2023-08-15T01:45:29.095Z,4.28
2023-08-15T01:47:57.793Z,5.53
2023-08-15T01:50:25.957Z,5.25
2023-08-15T01:52:53.977Z,4.75
2023-08-15T01:55:21.965Z,4.18
2023-08-15T01:57:51.412Z,4.97
2023-08-15T02:00:19.707Z,4.68
2023-08-15T02:02:47.763Z,3.40
2023-08-15T02:05:15.813Z,3.83
2023-08-15T02:07:43.813Z,3.38
2023-08-15T02:10:11.923Z,4.32
2023-08-15T02:12:39.903Z,3.38
2023-08-15T02:15:10.383Z,4.15
2023-08-15T02:17:38.419Z,5.10
2023-08-15T02:20:07.838Z,3.45
2023-08-15T02:22:35.880Z,3.97
2023-08-15T02:25:03.945Z,3.15
2023-08-15T02:27:31.894Z,5.35
2023-08-15T02:29:59.876Z,4.35
2023-08-15T02:32:29.384Z,5.28
2023-08-15T02:34:57.465Z,4.43
2023-08-15T02:37:25.548Z,5.63
2023-08-15T02:39:53.582Z,7.15
2023-08-15T02:42:21.596Z,6.25
2023-08-15T02:44:49.704Z,4.35
2023-08-15T02:47:17.746Z,3.45
2023-08-15T02:49:47.341Z,3.95
2023-08-15T02:52:15.386Z,4.72
2023-08-15T02:54:43.521Z,6.10
2023-08-15T02:57:11.549Z,6.10
2023-08-15T02:59:39.543Z,3.50
2023-08-15T03:02:07.568Z,4.30
2023-08-15T03:04:35.544Z,4.50
2023-08-15T03:07:05.039Z,3.97
2023-08-15T03:09:33.047Z,3.95
2023-08-15T03:12:01.076Z,6.60
2023-08-15T03:14:30.308Z,4.00
2023-08-15T03:16:58.566Z,8.93
2023-08-15T03:19:26.645Z,6.68
2023-08-15T03:21:54.742Z,6.45
2023-08-15T03:24:24.219Z,5.00
2023-08-15T03:26:52.255Z,4.40
2023-08-15T03:29:20.242Z,3.92
2023-08-15T03:31:48.342Z,4.57
2023-08-15T03:34:16.417Z,5.53
2023-08-15T03:36:46.787Z,3.80
2023-08-15T03:39:14.854Z,6.25
2023-08-15T03:41:44.311Z,5.32
2023-08-15T03:44:12.363Z,5.72
2023-08-15T03:46:41.904Z,8.32
2023-08-15T03:49:10.239Z,3.90
2023-08-15T03:51:47.144Z,4.63
2023-08-15T03:54:15.867Z,5.85
2023-08-15T03:56:45.572Z,5.30
2023-08-15T03:59:13.721Z,4.97
2023-08-15T04:01:41.920Z,5.65
2023-08-15T04:04:10.451Z,5.15
2023-08-15T04:06:38.864Z,5.05
2023-08-15T04:09:07.590Z,5.38
2023-08-15T04:11:35.970Z,5.03
2023-08-15T04:14:05.583Z,6.10
2023-08-15T04:16:33.862Z,3.75
2023-08-15T04:19:02.020Z,5.68
2023-08-15T04:21:30.296Z,5.50
2023-08-15T04:23:58.705Z,4.82
2023-08-15T04:26:26.936Z,5.75
2023-08-15T04:28:55.134Z,6.60
2023-08-15T04:31:25.200Z,5.07
2023-08-15T04:33:53.636Z,4.57
2023-08-15T04:36:21.735Z,5.35
2023-08-15T04:38:49.796Z,5.68
2023-08-15T04:41:18.524Z,6.18
2023-08-15T04:43:46.739Z,5.45
2023-08-15T04:46:14.979Z,6.72
2023-08-15T04:48:45.208Z,7.03
2023-08-15T04:51:13.486Z,6.18
2023-08-15T04:53:41.797Z,6.10
2023-08-15T04:56:12.864Z,6.82
2023-08-15T04:58:41.398Z,7.38
2023-08-15T05:01:10.572Z,5.20
2023-08-15T05:03:38.801Z,6.07
2023-08-15T05:06:08.813Z,7.38
2023-08-15T05:08:37.138Z,6.57
2023-08-15T05:11:05.997Z,7.38
2023-08-15T05:13:34.554Z,6.70
2023-08-15T05:16:02.751Z,6.28
2023-08-15T05:18:30.929Z,6.50
2023-08-15T05:20:59.069Z,7.55
2023-08-15T05:23:28.676Z,7.47
2023-08-15T05:25:57.018Z,8.30
2023-08-15T05:28:25.148Z,6.78
2023-08-15T05:30:53.323Z,7.97
2023-08-15T05:33:21.517Z,9.77
2023-08-15T05:35:50.691Z,7.88
2023-08-15T05:38:18.724Z,8.73
2023-08-15T05:40:48.649Z,10.80
2023-08-15T05:43:16.780Z,10.38
2023-08-15T05:45:46.687Z,7.65
2023-08-15T05:48:14.956Z,7.15
2023-08-15T05:50:43.130Z,9.07
2023-08-15T05:53:11.429Z,7.85
2023-08-15T05:55:39.775Z,7.55
2023-08-15T05:58:09.325Z,10.68
2023-08-15T06:00:39.238Z,6.90
2023-08-15T06:03:08.339Z,6.05
2023-08-15T06:05:36.573Z,7.72
2023-08-15T06:08:05.139Z,10.43
2023-08-15T06:10:33.354Z,8.98
2023-08-15T06:13:01.754Z,7.28
2023-08-15T06:15:31.730Z,8.05
2023-08-15T06:17:59.881Z,7.35
2023-08-15T06:20:29.130Z,10.68
2023-08-15T06:22:57.410Z,8.50
2023-08-15T06:25:25.572Z,9.52
2023-08-15T06:27:54.528Z,11.05
2023-08-15T06:30:22.707Z,8.63
2023-08-15T06:32:52.240Z,11.52
2023-08-15T06:35:20.521Z,10.35
2023-08-15T06:37:49.044Z,9.90
2023-08-15T06:40:18.073Z,9.93
2023-08-15T06:42:46.406Z,8.32
2023-08-15T06:45:17.747Z,8.50
2023-08-15T06:47:45.832Z,8.07
2023-08-15T06:50:15.437Z,8.23
2023-08-15T06:52:43.682Z,7.82
2023-08-15T06:55:12.366Z,7.80
2023-08-15T06:57:40.705Z,8.18
2023-08-15T07:00:13.177Z,12.52
2023-08-15T07:02:42.468Z,10.18
2023-08-15T07:05:11.941Z,9.45
2023-08-15T07:07:44.382Z,9.15
2023-08-15T07:10:13.407Z,9.48
2023-08-15T07:12:41.572Z,10.10
2023-08-15T07:15:10.582Z,9.60
2023-08-15T07:17:38.807Z,7.88
2023-08-15T07:20:08.290Z,11.90
2023-08-15T07:22:37.100Z,10.35
2023-08-15T07:25:08.182Z,11.23
2023-08-15T07:27:36.528Z,8.70
2023-08-15T07:30:04.993Z,9.38
2023-08-15T07:32:33.192Z,7.25
2023-08-15T07:35:01.818Z,8.57
2023-08-15T07:37:30.042Z,8.10
2023-08-15T07:40:00.280Z,8.55
2023-08-15T07:42:29.958Z,7.57
2023-08-15T07:44:58.228Z,10.52
2023-08-15T07:47:26.431Z,6.90
2023-08-15T07:50:14.693Z,8.07
2023-08-15T07:52:43.106Z,6.13
2023-08-15T07:55:11.650Z,6.03
2023-08-15T07:57:41.493Z,8.45
2023-08-15T08:00:11.008Z,6.45
2023-08-15T08:02:39.502Z,8.02
2023-08-15T08:05:08.922Z,8.45
2023-08-15T08:07:37.242Z,6.63
2023-08-15T08:10:06.287Z,6.70
2023-08-15T08:12:34.945Z,7.30
2023-08-15T08:15:05.408Z,8.32
2023-08-15T08:17:33.784Z,6.65
2023-08-15T08:20:02.789Z,9.13
2023-08-15T08:22:32.149Z,7.13
2023-08-15T08:25:12.678Z,5.47
2023-08-15T08:27:40.813Z,6.25
2023-08-15T08:30:12.764Z,5.82
2023-08-15T08:32:40.969Z,8.23
2023-08-15T08:35:09.935Z,6.30
2023-08-15T08:37:38.128Z,9.60
2023-08-15T08:40:08.235Z,4.68
2023-08-15T08:42:37.328Z,8.13
2023-08-15T08:45:08.325Z,5.60
2023-08-15T08:47:39.962Z,7.38
2023-08-15T08:50:11.277Z,7.35
2023-08-15T08:52:41.882Z,4.82
2023-08-15T08:55:10.751Z,5.40
2023-08-15T08:57:39.502Z,6.60
2023-08-15T09:00:10.553Z,5.65
2023-08-15T09:02:40.711Z,10.15
2023-08-15T09:05:10.757Z,4.85
2023-08-15T09:07:39.285Z,8.57
2023-08-15T09:10:08.702Z,5.85
2023-08-15T09:12:38.640Z,6.90
2023-08-15T09:15:08.055Z,7.93
2023-08-15T09:17:36.389Z,6.00
2023-08-15T09:20:15.114Z,5.15
2023-08-15T09:22:46.942Z,6.20
2023-08-15T09:25:16.972Z,9.98
2023-08-15T09:27:46.256Z,5.65
2023-08-15T09:30:16.501Z,6.10
2023-08-15T09:32:45.993Z,5.35
2023-08-15T09:35:18.368Z,7.05
2023-08-15T09:37:48.304Z,6.38
2023-08-15T09:40:18.718Z,4.50
2023-08-15T09:42:50.104Z,7.32
2023-08-15T09:45:19.187Z,5.07
2023-08-15T09:47:48.231Z,6.10
2023-08-15T09:50:18.382Z,5.18
2023-08-15T09:52:52.850Z,5.38
2023-08-15T09:55:21.545Z,6.13
2023-08-15T09:57:59.153Z,5.65
2023-08-15T10:00:27.283Z,5.50
2023-08-15T10:03:01.830Z,6.57
2023-08-15T10:05:34.949Z,6.95
2023-08-15T10:08:08.835Z,4.80
2023-08-15T10:10:44.569Z,6.75
2023-08-15T10:13:15.644Z,7.80
2023-08-15T10:15:44.338Z,6.70
2023-08-15T10:18:15.332Z,5.88
2023-08-15T10:20:44.881Z,6.38
2023-08-15T10:23:12.913Z,5.70
2023-08-15T10:25:51.280Z,5.53
2023-08-15T10:28:21.540Z,5.65
2023-08-15T10:30:52.600Z,6.32
2023-08-15T10:33:23.006Z,8.10
2023-08-15T10:35:54.409Z,8.32
2023-08-15T10:38:23.519Z,10.00
2023-08-15T10:40:54.012Z,8.82
2023-08-15T10:43:29.133Z,5.03
2023-08-15T10:46:02.120Z,8.80
2023-08-15T10:48:55.736Z,9.30
2023-08-15T10:51:35.461Z,5.65
2023-08-15T10:54:05.443Z,6.10
2023-08-15T10:56:37.629Z,6.88
2023-08-15T10:59:08.817Z,6.88
2023-08-15T11:01:38.653Z,6.05
2023-08-15T11:04:15.589Z,6.95
2023-08-15T11:06:53.729Z,6.93
2023-08-15T11:09:29.833Z,6.10
2023-08-15T11:12:08.676Z,7.22
2023-08-15T11:14:39.514Z,7.90
2023-08-15T11:17:14.466Z,5.05
2023-08-15T11:19:48.661Z,8.55
2023-08-15T11:22:18.600Z,5.90
2023-08-15T11:24:55.689Z,8.98
2023-08-15T11:27:24.715Z,4.97
2023-08-15T11:29:59.219Z,7.82
2023-08-15T11:32:27.652Z,5.63
2023-08-15T11:34:57.095Z,6.40
2023-08-15T11:37:31.995Z,5.88
2023-08-15T11:40:00.175Z,8.07
2023-08-15T11:42:29.366Z,9.10
2023-08-15T11:45:21.696Z,5.82
2023-08-15T11:48:00.234Z,11.63
2023-08-15T11:50:41.962Z,5.63
2023-08-15T11:53:15.644Z,5.60
2023-08-15T11:55:48.199Z,5.43
2023-08-15T11:58:26.911Z,8.20
2023-08-15T12:00:59.400Z,8.27
2023-08-15T12:03:28.651Z,5.55
2023-08-15T12:05:57.499Z,7.10
2023-08-15T12:08:28.033Z,6.78
2023-08-15T12:10:57.327Z,11.82
2023-08-15T12:13:32.379Z,19.45
2023-08-15T12:16:01.859Z,42.67
2023-08-15T12:18:30.041Z,65.72
2023-08-15T12:20:58.268Z,79.50
2023-08-15T12:23:29.463Z,82.85
2023-08-15T12:26:10.181Z,87.45
2023-08-15T12:28:53.409Z,34.13
2023-08-15T12:31:21.557Z,26.05
2023-08-15T12:33:49.684Z,18.33
2023-08-15T12:36:28.484Z,9.10
2023-08-15T12:39:01.150Z,8.35
2023-08-15T12:41:29.182Z,10.25
2023-08-15T12:44:00.331Z,7.65
2023-08-15T12:46:28.388Z,7.15
2023-08-15T12:48:59.911Z,7.47
2023-08-15T12:51:28.016Z,6.70
2023-08-15T12:53:56.164Z,8.55
2023-08-15T12:56:25.717Z,30.25
2023-08-15T12:58:53.740Z,29.02
2023-08-15T13:01:21.836Z,12.93
2023-08-15T13:03:51.828Z,14.68
2023-08-15T13:06:23.088Z,18.55
2023-08-15T13:09:03.370Z,11.40
2023-08-15T13:11:32.780Z,10.05
2023-08-15T13:14:27.829Z,13.50
2023-08-15T13:17:04.895Z,6.70
2023-08-15T13:19:33.680Z,6.40
2023-08-15T13:22:01.681Z,7.53
2023-08-15T13:24:29.878Z,7.13
2023-08-15T13:26:59.346Z,6.93
2023-08-15T13:29:31.766Z,7.18
2023-08-15T13:31:59.858Z,8.88
2023-08-15T13:34:28.881Z,7.30
2023-08-15T13:36:57.353Z,6.10
2023-08-15T13:39:28.639Z,8.93
2023-08-15T13:42:09.584Z,5.65
2023-08-15T13:44:54.397Z,7.78
2023-08-15T13:47:25.690Z,8.25
2023-08-15T13:49:56.863Z,6.32
2023-08-15T13:52:24.876Z,9.60
2023-08-15T13:54:59.142Z,9.00
2023-08-15T13:57:31.723Z,7.97
2023-08-15T13:59:59.876Z,6.35
2023-08-15T14:02:27.927Z,6.90
2023-08-15T14:04:58.762Z,7.65
2023-08-15T14:07:48.883Z,7.15
2023-08-15T14:10:17.741Z,6.43
2023-08-15T14:13:12.727Z,7.43
2023-08-15T14:15:44.257Z,6.25
2023-08-15T14:18:12.422Z,12.32
2023-08-15T14:20:43.568Z,5.88
2023-08-15T14:23:14.740Z,7.65
2023-08-15T14:25:48.873Z,8.38
2023-08-15T14:28:27.538Z,12.57
2023-08-15T14:30:58.541Z,6.95
2023-08-15T14:33:28.340Z,8.30
2023-08-15T14:35:59.599Z,6.93
2023-08-15T14:41:15.335Z,10.60
2023-08-15T14:43:52.455Z,7.90
2023-08-15T14:46:22.939Z,6.50
2023-08-15T14:49:05.181Z,8.18
2023-08-15T14:51:38.676Z,9.60
2023-08-15T14:54:07.262Z,12.00
2023-08-15T14:56:38.370Z,8.68
2023-08-15T14:59:14.032Z,8.27
2023-08-15T15:01:50.043Z,9.88
2023-08-15T15:04:20.888Z,6.82
2023-08-15T15:06:51.792Z,7.50
2023-08-15T15:09:29.063Z,7.93
2023-08-15T15:11:57.097Z,7.13
2023-08-15T15:14:26.537Z,7.13
2023-08-15T15:17:01.071Z,9.38
2023-08-15T15:19:47.020Z,9.43
2023-08-15T15:22:17.305Z,7.80
2023-08-15T15:24:50.957Z,11.93
2023-08-15T15:27:25.459Z,7.80
2023-08-15T15:29:54.895Z,10.23
2023-08-15T15:32:37.924Z,7.25
2023-08-15T15:35:07.461Z,7.97
2023-08-15T15:37:38.364Z,9.43
2023-08-15T15:40:07.362Z,9.95
2023-08-15T15:42:38.169Z,9.65
2023-08-15T15:45:13.470Z,10.52
2023-08-15T15:47:47.373Z,7.53
2023-08-15T15:50:21.527Z,9.55
2023-08-15T15:52:52.948Z,9.13
2023-08-15T15:55:24.114Z,11.75
2023-08-15T15:57:52.180Z,9.23
2023-08-15T16:00:22.304Z,9.93
2023-08-15T16:02:50.606Z,10.32
2023-08-15T16:05:21.660Z,8.68
2023-08-15T16:07:49.686Z,9.32
2023-08-15T16:10:20.072Z,9.25
2023-08-15T16:12:49.253Z,9.18
2023-08-15T16:15:18.538Z,10.43
2023-08-15T16:17:50.815Z,11.80
2023-08-15T16:20:25.120Z,21.80
2023-08-15T16:23:02.334Z,9.73
2023-08-15T16:25:30.969Z,8.73
2023-08-15T16:28:00.725Z,11.07
2023-08-15T16:30:29.392Z,8.18
2023-08-15T16:33:02.126Z,10.77
2023-08-15T16:35:30.342Z,10.30
2023-08-15T16:37:58.393Z,8.50
2023-08-15T16:40:26.484Z,9.55
2023-08-15T16:43:10.808Z,9.02
2023-08-15T16:45:39.799Z,9.05
2023-08-15T16:48:10.960Z,8.93
2023-08-15T16:50:54.351Z,10.50
2023-08-15T16:53:28.689Z,11.02
2023-08-15T16:55:58.913Z,9.52
2023-08-15T16:58:29.905Z,8.98
2023-08-15T17:00:57.928Z,10.27
2023-08-15T17:03:27.450Z,13.18
2023-08-15T17:05:58.773Z,11.80
2023-08-15T17:08:29.540Z,13.98
2023-08-15T17:11:09.288Z,14.95
2023-08-15T17:13:40.852Z,12.75
2023-08-15T17:16:09.024Z,9.68
2023-08-15T17:18:43.709Z,9.95
2023-08-15T17:21:11.698Z,10.45
2023-08-15T17:23:39.697Z,9.50
2023-08-15T17:26:13.582Z,10.10
2023-08-15T17:28:41.592Z,9.10
2023-08-15T17:31:18.688Z,9.07
2023-08-15T17:33:48.329Z,16.23
2023-08-15T17:36:16.859Z,7.20
2023-08-15T17:38:44.989Z,8.45
2023-08-15T17:41:13.012Z,6.32
2023-08-15T17:43:43.901Z,4.00
2023-08-15T17:46:13.422Z,5.15
2023-08-15T17:48:41.522Z,5.35
2023-08-15T17:51:10.904Z,5.05
2023-08-15T17:53:41.737Z,5.13
2023-08-15T17:56:09.872Z,4.45
2023-08-15T17:58:53.014Z,6.82
2023-08-15T18:01:21.212Z,4.30
2023-08-15T18:03:50.068Z,5.20
2023-08-15T18:06:19.732Z,5.25
2023-08-15T18:08:47.798Z,4.82
2023-08-15T18:11:21.797Z,6.07
2023-08-15T18:13:49.769Z,5.50
2023-08-15T18:16:17.864Z,7.45
2023-08-15T18:18:46.375Z,7.15
2023-08-15T18:21:14.397Z,5.43
2023-08-15T18:23:46.817Z,9.10
2023-08-15T18:26:14.892Z,8.13
2023-08-15T18:28:42.920Z,6.93
2023-08-15T18:31:10.909Z,6.55
2023-08-15T18:33:39.602Z,4.80
2023-08-15T18:36:08.206Z,6.47
2023-08-15T18:38:39.322Z,5.47
2023-08-15T18:41:08.774Z,4.45
2023-08-15T18:43:36.923Z,6.15
2023-08-15T18:46:05.221Z,5.80
2023-08-15T18:48:34.410Z,6.25
2023-08-15T18:51:08.162Z,4.35
2023-08-15T18:53:36.173Z,4.88
2023-08-15T18:56:04.221Z,7.90
2023-08-15T18:58:33.551Z,5.80
2023-08-15T19:01:01.645Z,6.13
2023-08-15T19:03:29.671Z,6.20
2023-08-15T19:05:58.781Z,5.15
2023-08-15T19:08:28.349Z,5.95
2023-08-15T19:10:56.354Z,7.72
2023-08-15T19:13:24.418Z,5.28
2023-08-15T19:15:53.824Z,6.43
2023-08-15T19:18:21.894Z,6.45
2023-08-15T19:20:49.891Z,6.38
2023-08-15T19:23:17.938Z,5.90
2023-08-15T19:25:48.211Z,5.72
2023-08-15T19:28:17.238Z,6.28
2023-08-15T19:30:45.543Z,8.65
2023-08-15T19:33:17.975Z,7.57
2023-08-15T19:35:47.935Z,7.05
2023-08-15T19:38:16.244Z,8.35
2023-08-15T19:40:47.003Z,5.53
2023-08-15T19:43:15.019Z,6.95
2023-08-15T19:45:43.147Z,8.05
2023-08-15T19:48:11.300Z,9.50
2023-08-15T19:50:40.882Z,6.63
2023-08-15T19:53:09.095Z,5.85
2023-08-15T19:55:38.860Z,6.50
2023-08-15T19:58:08.458Z,7.40
2023-08-15T20:00:37.121Z,8.90
2023-08-15T20:03:05.708Z,6.30
2023-08-15T20:05:33.871Z,6.90
2023-08-15T20:08:03.705Z,5.32
2023-08-15T20:10:31.804Z,13.50
2023-08-15T20:12:59.934Z,6.30
2023-08-15T20:15:28.454Z,8.65
2023-08-15T20:17:56.774Z,6.13
2023-08-15T20:20:25.302Z,8.57
2023-08-15T20:22:53.580Z,6.57
2023-08-15T20:25:23.869Z,6.15
2023-08-15T20:27:52.274Z,6.90
2023-08-15T20:30:20.731Z,5.30
2023-08-15T20:32:48.930Z,7.70
2023-08-15T20:35:17.794Z,7.35
2023-08-15T20:37:46.819Z,7.13
2023-08-15T20:40:15.790Z,6.97
2023-08-15T20:42:45.426Z,7.85
2023-08-15T20:45:14.921Z,6.65
2023-08-15T20:47:43.181Z,6.55
2023-08-15T20:50:11.852Z,7.10
2023-08-15T20:52:39.994Z,7.40
2023-08-15T20:55:12.597Z,5.43
2023-08-15T20:57:41.039Z,8.32
2023-08-15T21:00:12.312Z,8.32
2023-08-15T21:02:40.596Z,7.55
2023-08-15T21:05:10.271Z,6.97
2023-08-15T21:07:38.651Z,9.70
2023-08-15T21:10:08.017Z,10.20
2023-08-15T21:12:36.639Z,8.13
2023-08-15T21:15:05.240Z,5.70
2023-08-15T21:17:35.219Z,7.45
2023-08-15T21:20:03.518Z,7.28
2023-08-15T21:22:31.919Z,5.53
2023-08-15T21:25:00.850Z,5.53
2023-08-15T21:27:29.011Z,7.05
2023-08-15T21:29:57.012Z,5.88
2023-08-15T21:32:25.330Z,6.80
2023-08-15T21:34:55.221Z,4.47
2023-08-15T21:37:23.762Z,7.25
2023-08-15T21:39:52.056Z,9.15
2023-08-15T21:42:20.556Z,8.75
2023-08-15T21:44:49.023Z,8.10
2023-08-15T21:47:17.136Z,9.80
2023-08-15T21:49:44.410Z,7.63
2023-08-15T21:52:13.900Z,7.95
2023-08-15T21:54:42.364Z,7.43
2023-08-15T21:57:10.384Z,6.20
2023-08-15T21:59:38.501Z,5.15
2023-08-15T22:02:06.671Z,9.02
2023-08-15T22:04:35.049Z,6.45
2023-08-15T22:07:03.223Z,6.72
2023-08-15T22:09:32.792Z,5.10
2023-08-15T22:12:01.218Z,7.38
2023-08-15T22:14:29.287Z,6.35
2023-08-15T22:16:57.558Z,6.07
2023-08-15T22:19:25.877Z,9.88
2023-08-15T22:21:53.948Z,7.65
2023-08-15T22:24:22.021Z,8.52
2023-08-15T22:26:52.209Z,7.78
2023-08-15T22:29:20.378Z,7.10
2023-08-15T22:31:49.118Z,8.80
2023-08-15T22:34:18.109Z,11.20
2023-08-15T22:36:46.838Z,6.40
2023-08-15T22:39:15.097Z,10.40
2023-08-15T22:41:44.025Z,6.63
2023-08-15T22:44:13.625Z,9.65
2023-08-15T22:46:41.762Z,7.78
2023-08-15T22:49:10.065Z,7.50
2023-08-15T22:51:38.325Z,7.40
2023-08-15T22:54:07.476Z,8.38
2023-08-15T22:56:35.796Z,9.40
2023-08-15T22:59:04.305Z,8.80
2023-08-15T23:01:34.226Z,8.63
2023-08-15T23:04:02.619Z,5.70
2023-08-15T23:06:31.466Z,8.40
2023-08-15T23:08:59.553Z,6.00
2023-08-15T23:11:28.332Z,8.32
2023-08-15T23:13:56.384Z,9.77
2023-08-15T23:16:24.751Z,6.75
2023-08-15T23:18:54.522Z,6.80
2023-08-15T23:21:22.860Z,8.23
2023-08-15T23:23:51.201Z,7.40
2023-08-15T23:26:19.387Z,10.35
2023-08-15T23:28:47.842Z,7.97
2023-08-15T23:31:17.264Z,8.07
2023-08-15T23:33:46.222Z,4.90
2023-08-15T23:36:15.972Z,5.40
2023-08-15T23:38:44.327Z,8.15
2023-08-15T23:41:12.832Z,6.82
2023-08-15T23:43:40.980Z,8.20
2023-08-15T23:46:09.186Z,5.40
2023-08-15T23:48:37.326Z,6.18
2023-08-15T23:51:05.530Z,5.55
2023-08-15T23:53:35.258Z,5.60
2023-08-15T23:56:04.389Z,5.22
2023-08-15T23:58:32.507Z,7.00
